sensor_id;sensor_type;location;lat;lon;timestamp;temperature;humidity
67273;DHT22;54190;49.770;9.250;2023-04-15T00:00:14;5.10;99.90
67273;DHT22;54190;49.770;9.250;2023-04-15T00:02:41;5.10;99.90
67273;DHT22;54190;49.770;9.250;2023-04-15T00:05:07;5.10;99.90
67273;DHT22;54190;49.770;9.250;2023-04-15T00:07:33;5.10;99.90
67273;DHT22;54190;49.770;9.250;2023-04-15T00:09:58;5.10;99.90
67273;DHT22;54190;49.770;9.250;2023-04-15T00:12:27;5.20;99.90
67273;DHT22;54190;49.770;9.250;2023-04-15T00:14:53;5.20;99.90
67273;DHT22;54190;49.770;9.250;2023-04-15T00:17:20;5.20;99.90
67273;DHT22;54190;49.770;9.250;2023-04-15T00:19:45;5.20;99.90
67273;DHT22;54190;49.770;9.250;2023-04-15T00:22:11;5.30;99.90
67273;DHT22;54190;49.770;9.250;2023-04-15T00:24:38;5.30;99.90
67273;DHT22;54190;49.770;9.250;2023-04-15T00:27:04;5.20;99.90
67273;DHT22;54190;49.770;9.250;2023-04-15T00:29:30;5.20;99.90
67273;DHT22;54190;49.770;9.250;2023-04-15T00:31:56;5.10;99.90
67273;DHT22;54190;49.770;9.250;2023-04-15T00:34:22;5.20;99.90
67273;DHT22;54190;49.770;9.250;2023-04-15T00:36:49;5.10;99.90
67273;DHT22;54190;49.770;9.250;2023-04-15T00:39:15;5.10;99.90
67273;DHT22;54190;49.770;9.250;2023-04-15T00:41:42;5.10;99.90
67273;DHT22;54190;49.770;9.250;2023-04-15T00:44:08;5.10;99.90
67273;DHT22;54190;49.770;9.250;2023-04-15T00:46:35;5.10;99.90
67273;DHT22;54190;49.770;9.250;2023-04-15T00:49:06;5.00;99.90
67273;DHT22;54190;49.770;9.250;2023-04-15T00:51:32;4.70;99.90
67273;DHT22;54190;49.770;9.250;2023-04-15T00:54:04;4.60;99.90
67273;DHT22;54190;49.770;9.250;2023-04-15T00:56:32;4.50;99.90
67273;DHT22;54190;49.770;9.250;2023-04-15T00:59:00;4.50;99.90
67273;DHT22;54190;49.770;9.250;2023-04-15T01:01:27;4.50;99.90
67273;DHT22;54190;49.770;9.250;2023-04-15T01:03:55;4.60;99.90
67273;DHT22;54190;49.770;9.250;2023-04-15T01:06:21;4.70;99.90
67273;DHT22;54190;49.770;9.250;2023-04-15T01:08:46;4.70;99.90
67273;DHT22;54190;49.770;9.250;2023-04-15T01:11:13;4.80;99.90
67273;DHT22;54190;49.770;9.250;2023-04-15T01:13:40;4.90;99.90
67273;DHT22;54190;49.770;9.250;2023-04-15T01:16:07;4.80;99.90
67273;DHT22;54190;49.770;9.250;2023-04-15T01:18:34;4.80;99.90
67273;DHT22;54190;49.770;9.250;2023-04-15T01:21:02;4.80;99.90
67273;DHT22;54190;49.770;9.250;2023-04-15T01:23:30;4.80;99.90
67273;DHT22;54190;49.770;9.250;2023-04-15T01:25:56;4.80;99.90
67273;DHT22;54190;49.770;9.250;2023-04-15T01:28:22;4.80;99.90
67273;DHT22;54190;49.770;9.250;2023-04-15T01:30:48;4.70;99.90
67273;DHT22;54190;49.770;9.250;2023-04-15T01:33:14;4.70;99.90
67273;DHT22;54190;49.770;9.250;2023-04-15T01:35:40;4.70;99.90
67273;DHT22;54190;49.770;9.250;2023-04-15T01:38:09;4.70;99.90
67273;DHT22;54190;49.770;9.250;2023-04-15T01:40:36;4.70;99.90
67273;DHT22;54190;49.770;9.250;2023-04-15T01:43:02;4.70;99.90
67273;DHT22;54190;49.770;9.250;2023-04-15T01:45:28;4.70;99.90
67273;DHT22;54190;49.770;9.250;2023-04-15T01:47:54;4.70;99.90
67273;DHT22;54190;49.770;9.250;2023-04-15T01:50:20;4.70;99.90
67273;DHT22;54190;49.770;9.250;2023-04-15T01:52:47;4.80;99.90
67273;DHT22;54190;49.770;9.250;2023-04-15T01:55:13;4.80;99.90
67273;DHT22;54190;49.770;9.250;2023-04-15T01:57:39;4.80;99.90
67273;DHT22;54190;49.770;9.250;2023-04-15T02:00:05;4.80;99.90
67273;DHT22;54190;49.770;9.250;2023-04-15T02:02:38;4.80;99.90
67273;DHT22;54190;49.770;9.250;2023-04-15T02:05:04;4.70;99.90
67273;DHT22;54190;49.770;9.250;2023-04-15T02:07:30;4.60;99.90
67273;DHT22;54190;49.770;9.250;2023-04-15T02:09:56;4.50;99.90
67273;DHT22;54190;49.770;9.250;2023-04-15T02:12:22;4.50;99.90
67273;DHT22;54190;49.770;9.250;2023-04-15T02:14:48;4.50;99.90
67273;DHT22;54190;49.770;9.250;2023-04-15T02:17:14;4.40;99.90
67273;DHT22;54190;49.770;9.250;2023-04-15T02:19:42;4.40;99.90
67273;DHT22;54190;49.770;9.250;2023-04-15T02:22:07;4.40;99.90
67273;DHT22;54190;49.770;9.250;2023-04-15T02:24:34;4.40;99.90
67273;DHT22;54190;49.770;9.250;2023-04-15T02:27:01;4.40;99.90
67273;DHT22;54190;49.770;9.250;2023-04-15T02:29:27;4.30;99.90
67273;DHT22;54190;49.770;9.250;2023-04-15T02:31:53;4.30;99.90
67273;DHT22;54190;49.770;9.250;2023-04-15T02:34:19;4.20;99.90
67273;DHT22;54190;49.770;9.250;2023-04-15T02:36:45;4.20;99.90
67273;DHT22;54190;49.770;9.250;2023-04-15T02:39:13;4.20;99.90
67273;DHT22;54190;49.770;9.250;2023-04-15T02:41:41;4.30;99.90
67273;DHT22;54190;49.770;9.250;2023-04-15T02:44:08;4.30;99.90
67273;DHT22;54190;49.770;9.250;2023-04-15T02:46:34;4.20;99.90
67273;DHT22;54190;49.770;9.250;2023-04-15T02:49:00;4.20;99.90
67273;DHT22;54190;49.770;9.250;2023-04-15T02:51:29;4.00;99.90
67273;DHT22;54190;49.770;9.250;2023-04-15T02:53:56;4.00;99.90
67273;DHT22;54190;49.770;9.250;2023-04-15T02:56:22;3.90;99.90
67273;DHT22;54190;49.770;9.250;2023-04-15T02:58:48;4.00;99.90
67273;DHT22;54190;49.770;9.250;2023-04-15T03:01:15;4.00;99.90
67273;DHT22;54190;49.770;9.250;2023-04-15T03:03:41;4.10;99.90
67273;DHT22;54190;49.770;9.250;2023-04-15T03:06:07;4.10;99.90
67273;DHT22;54190;49.770;9.250;2023-04-15T03:08:33;4.20;99.90
67273;DHT22;54190;49.770;9.250;2023-04-15T03:10:59;4.20;99.90
67273;DHT22;54190;49.770;9.250;2023-04-15T03:13:27;4.20;99.90
67273;DHT22;54190;49.770;9.250;2023-04-15T03:15:54;4.10;99.90
67273;DHT22;54190;49.770;9.250;2023-04-15T03:18:21;4.10;99.90
67273;DHT22;54190;49.770;9.250;2023-04-15T03:20:48;4.10;99.90
67273;DHT22;54190;49.770;9.250;2023-04-15T03:23:13;4.10;99.90
67273;DHT22;54190;49.770;9.250;2023-04-15T03:25:39;4.20;99.90
67273;DHT22;54190;49.770;9.250;2023-04-15T03:28:06;4.20;99.90
67273;DHT22;54190;49.770;9.250;2023-04-15T03:30:32;4.30;99.90
67273;DHT22;54190;49.770;9.250;2023-04-15T03:32:58;4.50;99.90
67273;DHT22;54190;49.770;9.250;2023-04-15T03:35:24;4.50;99.90
67273;DHT22;54190;49.770;9.250;2023-04-15T03:37:50;4.60;99.90
67273;DHT22;54190;49.770;9.250;2023-04-15T03:40:16;4.60;99.90
67273;DHT22;54190;49.770;9.250;2023-04-15T03:42:41;4.70;99.90
67273;DHT22;54190;49.770;9.250;2023-04-15T03:45:07;4.70;99.90
67273;DHT22;54190;49.770;9.250;2023-04-15T03:47:33;4.70;99.90
67273;DHT22;54190;49.770;9.250;2023-04-15T03:49:58;4.60;99.90
67273;DHT22;54190;49.770;9.250;2023-04-15T03:52:24;4.60;99.90
67273;DHT22;54190;49.770;9.250;2023-04-15T03:54:49;4.60;99.90
67273;DHT22;54190;49.770;9.250;2023-04-15T03:57:15;4.60;99.90
67273;DHT22;54190;49.770;9.250;2023-04-15T03:59:41;4.60;99.90
67273;DHT22;54190;49.770;9.250;2023-04-15T04:02:07;4.60;99.90
67273;DHT22;54190;49.770;9.250;2023-04-15T04:04:32;4.50;99.90
67273;DHT22;54190;49.770;9.250;2023-04-15T04:06:58;4.50;99.90
67273;DHT22;54190;49.770;9.250;2023-04-15T04:09:24;4.50;99.90
67273;DHT22;54190;49.770;9.250;2023-04-15T04:11:50;4.50;99.90
67273;DHT22;54190;49.770;9.250;2023-04-15T04:14:15;4.50;99.90
67273;DHT22;54190;49.770;9.250;2023-04-15T04:16:41;4.50;99.90
67273;DHT22;54190;49.770;9.250;2023-04-15T04:19:07;4.60;99.90
67273;DHT22;54190;49.770;9.250;2023-04-15T04:21:32;4.60;99.90
67273;DHT22;54190;49.770;9.250;2023-04-15T04:23:58;4.60;99.90
67273;DHT22;54190;49.770;9.250;2023-04-15T04:26:24;4.60;99.90
67273;DHT22;54190;49.770;9.250;2023-04-15T04:28:50;4.60;99.90
67273;DHT22;54190;49.770;9.250;2023-04-15T04:31:16;4.60;99.90
67273;DHT22;54190;49.770;9.250;2023-04-15T04:33:41;4.70;99.90
67273;DHT22;54190;49.770;9.250;2023-04-15T04:36:07;4.70;99.90
67273;DHT22;54190;49.770;9.250;2023-04-15T04:38:33;4.60;99.90
67273;DHT22;54190;49.770;9.250;2023-04-15T04:40:58;4.60;99.90
67273;DHT22;54190;49.770;9.250;2023-04-15T04:43:24;4.60;99.90
67273;DHT22;54190;49.770;9.250;2023-04-15T04:45:50;4.60;99.90
67273;DHT22;54190;49.770;9.250;2023-04-15T04:48:16;4.60;99.90
67273;DHT22;54190;49.770;9.250;2023-04-15T04:50:42;4.50;99.90
67273;DHT22;54190;49.770;9.250;2023-04-15T04:53:08;4.60;99.90
67273;DHT22;54190;49.770;9.250;2023-04-15T04:55:34;4.60;99.90
67273;DHT22;54190;49.770;9.250;2023-04-15T04:58:01;4.60;99.90
67273;DHT22;54190;49.770;9.250;2023-04-15T05:00:27;4.70;99.90
67273;DHT22;54190;49.770;9.250;2023-04-15T05:02:54;4.70;99.90
67273;DHT22;54190;49.770;9.250;2023-04-15T05:05:20;4.70;99.90
67273;DHT22;54190;49.770;9.250;2023-04-15T05:07:45;4.70;99.90
67273;DHT22;54190;49.770;9.250;2023-04-15T05:10:12;4.70;99.90
67273;DHT22;54190;49.770;9.250;2023-04-15T05:12:39;4.70;99.90
67273;DHT22;54190;49.770;9.250;2023-04-15T05:15:05;4.60;99.90
67273;DHT22;54190;49.770;9.250;2023-04-15T05:17:31;4.40;99.90
67273;DHT22;54190;49.770;9.250;2023-04-15T05:19:57;4.30;99.90
67273;DHT22;54190;49.770;9.250;2023-04-15T05:22:23;4.30;99.90
67273;DHT22;54190;49.770;9.250;2023-04-15T05:24:49;4.40;99.90
67273;DHT22;54190;49.770;9.250;2023-04-15T05:27:14;4.40;99.90
67273;DHT22;54190;49.770;9.250;2023-04-15T05:29:40;4.50;99.90
67273;DHT22;54190;49.770;9.250;2023-04-15T05:32:06;4.60;99.90
67273;DHT22;54190;49.770;9.250;2023-04-15T05:34:31;4.70;99.90
67273;DHT22;54190;49.770;9.250;2023-04-15T05:36:57;4.70;99.90
67273;DHT22;54190;49.770;9.250;2023-04-15T05:39:22;4.70;99.90
67273;DHT22;54190;49.770;9.250;2023-04-15T05:41:48;4.60;99.90
67273;DHT22;54190;49.770;9.250;2023-04-15T05:44:14;4.70;99.90
67273;DHT22;54190;49.770;9.250;2023-04-15T05:46:39;4.80;99.90
67273;DHT22;54190;49.770;9.250;2023-04-15T05:49:06;4.90;99.90
67273;DHT22;54190;49.770;9.250;2023-04-15T05:51:31;4.90;99.90
67273;DHT22;54190;49.770;9.250;2023-04-15T05:53:57;4.90;99.90
67273;DHT22;54190;49.770;9.250;2023-04-15T05:56:23;4.90;99.90
67273;DHT22;54190;49.770;9.250;2023-04-15T05:58:51;4.90;99.90
67273;DHT22;54190;49.770;9.250;2023-04-15T06:01:16;4.90;99.90
67273;DHT22;54190;49.770;9.250;2023-04-15T06:03:42;4.90;99.90
67273;DHT22;54190;49.770;9.250;2023-04-15T06:06:08;4.90;99.90
67273;DHT22;54190;49.770;9.250;2023-04-15T06:08:34;4.80;99.90
67273;DHT22;54190;49.770;9.250;2023-04-15T06:11:00;4.80;99.90
67273;DHT22;54190;49.770;9.250;2023-04-15T06:13:25;4.70;99.90
67273;DHT22;54190;49.770;9.250;2023-04-15T06:15:51;4.70;99.90
67273;DHT22;54190;49.770;9.250;2023-04-15T06:18:18;4.70;99.90
67273;DHT22;54190;49.770;9.250;2023-04-15T06:20:44;4.80;99.90
67273;DHT22;54190;49.770;9.250;2023-04-15T06:23:10;4.70;99.90
67273;DHT22;54190;49.770;9.250;2023-04-15T06:25:36;4.80;99.90
67273;DHT22;54190;49.770;9.250;2023-04-15T06:28:02;4.80;99.90
67273;DHT22;54190;49.770;9.250;2023-04-15T06:30:28;4.80;99.90
67273;DHT22;54190;49.770;9.250;2023-04-15T06:32:54;4.90;99.90
67273;DHT22;54190;49.770;9.250;2023-04-15T06:35:20;5.00;99.90
67273;DHT22;54190;49.770;9.250;2023-04-15T06:37:46;5.10;99.90
67273;DHT22;54190;49.770;9.250;2023-04-15T06:40:12;5.10;99.90
67273;DHT22;54190;49.770;9.250;2023-04-15T06:42:38;5.20;99.90
67273;DHT22;54190;49.770;9.250;2023-04-15T06:45:04;5.20;99.90
67273;DHT22;54190;49.770;9.250;2023-04-15T06:47:30;5.30;99.90
67273;DHT22;54190;49.770;9.250;2023-04-15T06:49:55;5.40;99.90
67273;DHT22;54190;49.770;9.250;2023-04-15T06:52:21;5.50;99.90
67273;DHT22;54190;49.770;9.250;2023-04-15T06:54:46;5.70;99.90
67273;DHT22;54190;49.770;9.250;2023-04-15T06:57:12;5.80;99.90
67273;DHT22;54190;49.770;9.250;2023-04-15T06:59:38;5.90;99.90
67273;DHT22;54190;49.770;9.250;2023-04-15T07:02:03;6.00;99.90
67273;DHT22;54190;49.770;9.250;2023-04-15T07:04:29;6.10;99.90
67273;DHT22;54190;49.770;9.250;2023-04-15T07:06:54;6.10;99.90
67273;DHT22;54190;49.770;9.250;2023-04-15T07:09:22;6.20;99.90
67273;DHT22;54190;49.770;9.250;2023-04-15T07:11:48;6.30;99.90
67273;DHT22;54190;49.770;9.250;2023-04-15T07:14:14;6.40;99.90
67273;DHT22;54190;49.770;9.250;2023-04-15T07:16:39;6.40;99.90
67273;DHT22;54190;49.770;9.250;2023-04-15T07:19:05;6.50;99.90
67273;DHT22;54190;49.770;9.250;2023-04-15T07:21:32;6.60;99.90
67273;DHT22;54190;49.770;9.250;2023-04-15T07:23:57;6.60;99.90
67273;DHT22;54190;49.770;9.250;2023-04-15T07:26:23;6.70;99.90
67273;DHT22;54190;49.770;9.250;2023-04-15T07:28:49;6.80;99.90
67273;DHT22;54190;49.770;9.250;2023-04-15T07:31:15;6.80;99.90
67273;DHT22;54190;49.770;9.250;2023-04-15T07:33:41;6.90;99.90
67273;DHT22;54190;49.770;9.250;2023-04-15T07:36:07;7.00;99.90
67273;DHT22;54190;49.770;9.250;2023-04-15T07:38:33;7.00;99.90
67273;DHT22;54190;49.770;9.250;2023-04-15T07:40:58;7.10;99.90
67273;DHT22;54190;49.770;9.250;2023-04-15T07:43:24;7.10;99.90
67273;DHT22;54190;49.770;9.250;2023-04-15T07:45:49;7.20;99.90
67273;DHT22;54190;49.770;9.250;2023-04-15T07:48:15;7.20;99.90
67273;DHT22;54190;49.770;9.250;2023-04-15T07:50:41;7.30;99.90
67273;DHT22;54190;49.770;9.250;2023-04-15T07:53:07;7.30;99.90
67273;DHT22;54190;49.770;9.250;2023-04-15T07:55:32;7.30;99.90
67273;DHT22;54190;49.770;9.250;2023-04-15T07:57:58;7.40;99.90
67273;DHT22;54190;49.770;9.250;2023-04-15T08:00:24;7.40;99.90
67273;DHT22;54190;49.770;9.250;2023-04-15T08:02:51;7.50;99.90
67273;DHT22;54190;49.770;9.250;2023-04-15T08:05:18;7.60;99.90
67273;DHT22;54190;49.770;9.250;2023-04-15T08:07:44;7.60;99.90
67273;DHT22;54190;49.770;9.250;2023-04-15T08:10:10;7.70;99.90
67273;DHT22;54190;49.770;9.250;2023-04-15T08:12:36;7.70;99.90
67273;DHT22;54190;49.770;9.250;2023-04-15T08:15:02;7.80;99.90
67273;DHT22;54190;49.770;9.250;2023-04-15T08:17:28;7.90;99.90
67273;DHT22;54190;49.770;9.250;2023-04-15T08:19:54;8.00;99.90
67273;DHT22;54190;49.770;9.250;2023-04-15T08:22:19;8.10;99.90
67273;DHT22;54190;49.770;9.250;2023-04-15T08:24:45;8.10;99.90
67273;DHT22;54190;49.770;9.250;2023-04-15T08:27:11;8.20;99.90
67273;DHT22;54190;49.770;9.250;2023-04-15T08:29:37;8.30;99.90
67273;DHT22;54190;49.770;9.250;2023-04-15T08:32:03;8.40;99.90
67273;DHT22;54190;49.770;9.250;2023-04-15T08:34:28;8.50;99.90
67273;DHT22;54190;49.770;9.250;2023-04-15T08:36:55;8.60;99.90
67273;DHT22;54190;49.770;9.250;2023-04-15T08:39:21;8.70;99.90
67273;DHT22;54190;49.770;9.250;2023-04-15T08:42:00;8.80;99.90
67273;DHT22;54190;49.770;9.250;2023-04-15T08:44:29;9.00;99.90
67273;DHT22;54190;49.770;9.250;2023-04-15T08:47:02;9.10;99.90
67273;DHT22;54190;49.770;9.250;2023-04-15T08:49:31;9.20;99.90
67273;DHT22;54190;49.770;9.250;2023-04-15T08:51:58;9.30;99.90
67273;DHT22;54190;49.770;9.250;2023-04-15T08:54:25;9.30;99.90
67273;DHT22;54190;49.770;9.250;2023-04-15T08:56:51;9.30;99.90
67273;DHT22;54190;49.770;9.250;2023-04-15T08:59:19;9.40;99.90
67273;DHT22;54190;49.770;9.250;2023-04-15T09:01:47;9.50;99.90
67273;DHT22;54190;49.770;9.250;2023-04-15T09:04:13;9.50;99.90
67273;DHT22;54190;49.770;9.250;2023-04-15T09:06:39;9.60;99.90
67273;DHT22;54190;49.770;9.250;2023-04-15T09:09:05;9.80;99.90
67273;DHT22;54190;49.770;9.250;2023-04-15T09:11:31;9.90;99.90
67273;DHT22;54190;49.770;9.250;2023-04-15T09:13:57;9.90;99.90
67273;DHT22;54190;49.770;9.250;2023-04-15T09:16:23;9.90;99.90
67273;DHT22;54190;49.770;9.250;2023-04-15T09:18:48;9.90;99.90
67273;DHT22;54190;49.770;9.250;2023-04-15T09:21:15;9.90;99.90
67273;DHT22;54190;49.770;9.250;2023-04-15T09:26:34;9.60;99.90
67273;DHT22;54190;49.770;9.250;2023-04-15T09:29:08;9.60;99.90
67273;DHT22;54190;49.770;9.250;2023-04-15T09:31:35;9.70;99.90
67273;DHT22;54190;49.770;9.250;2023-04-15T09:34:01;9.70;99.90
67273;DHT22;54190;49.770;9.250;2023-04-15T09:36:27;9.70;99.90
67273;DHT22;54190;49.770;9.250;2023-04-15T09:38:59;9.80;99.90
67273;DHT22;54190;49.770;9.250;2023-04-15T09:41:25;9.70;99.90
67273;DHT22;54190;49.770;9.250;2023-04-15T09:43:52;9.70;99.90
67273;DHT22;54190;49.770;9.250;2023-04-15T09:46:17;9.70;99.90
67273;DHT22;54190;49.770;9.250;2023-04-15T09:48:43;9.70;99.90
67273;DHT22;54190;49.770;9.250;2023-04-15T09:51:09;9.80;99.90
67273;DHT22;54190;49.770;9.250;2023-04-15T09:53:36;9.70;99.90
67273;DHT22;54190;49.770;9.250;2023-04-15T09:56:03;9.70;99.90
67273;DHT22;54190;49.770;9.250;2023-04-15T09:58:33;9.70;99.90
67273;DHT22;54190;49.770;9.250;2023-04-15T10:01:01;9.70;99.90
67273;DHT22;54190;49.770;9.250;2023-04-15T10:03:33;9.70;99.90
67273;DHT22;54190;49.770;9.250;2023-04-15T10:06:00;9.70;99.90
67273;DHT22;54190;49.770;9.250;2023-04-15T10:08:31;9.70;99.90
67273;DHT22;54190;49.770;9.250;2023-04-15T10:11:00;9.70;99.90
67273;DHT22;54190;49.770;9.250;2023-04-15T10:13:29;9.70;99.90
67273;DHT22;54190;49.770;9.250;2023-04-15T10:15:58;9.70;99.90
67273;DHT22;54190;49.770;9.250;2023-04-15T10:18:27;9.70;99.90
67273;DHT22;54190;49.770;9.250;2023-04-15T10:20:54;9.70;99.90
67273;DHT22;54190;49.770;9.250;2023-04-15T10:23:21;9.80;99.90
67273;DHT22;54190;49.770;9.250;2023-04-15T10:25:51;9.80;99.90
67273;DHT22;54190;49.770;9.250;2023-04-15T10:28:21;9.80;99.90
67273;DHT22;54190;49.770;9.250;2023-04-15T10:30:50;9.80;99.90
67273;DHT22;54190;49.770;9.250;2023-04-15T10:33:20;9.80;99.90
67273;DHT22;54190;49.770;9.250;2023-04-15T10:35:47;9.90;99.90
67273;DHT22;54190;49.770;9.250;2023-04-15T10:38:39;10.00;99.90
67273;DHT22;54190;49.770;9.250;2023-04-15T10:41:25;10.20;99.90
67273;DHT22;54190;49.770;9.250;2023-04-15T10:44:02;10.30;99.90
67273;DHT22;54190;49.770;9.250;2023-04-15T10:46:41;10.40;99.90
67273;DHT22;54190;49.770;9.250;2023-04-15T10:49:16;10.50;99.90
67273;DHT22;54190;49.770;9.250;2023-04-15T10:51:53;10.60;99.90
67273;DHT22;54190;49.770;9.250;2023-04-15T10:56:52;10.90;99.90
67273;DHT22;54190;49.770;9.250;2023-04-15T10:59:32;10.90;99.90
67273;DHT22;54190;49.770;9.250;2023-04-15T11:02:02;11.10;99.90
67273;DHT22;54190;49.770;9.250;2023-04-15T11:04:54;11.20;99.90
67273;DHT22;54190;49.770;9.250;2023-04-15T11:12:43;10.90;99.90
67273;DHT22;54190;49.770;9.250;2023-04-15T11:18:10;10.80;99.70
67273;DHT22;54190;49.770;9.250;2023-04-15T11:20:38;10.70;99.30
67273;DHT22;54190;49.770;9.250;2023-04-15T11:23:05;10.60;99.80
67273;DHT22;54190;49.770;9.250;2023-04-15T11:25:32;10.60;99.90
67273;DHT22;54190;49.770;9.250;2023-04-15T11:28:00;10.50;99.90
67273;DHT22;54190;49.770;9.250;2023-04-15T11:30:28;10.60;99.90
67273;DHT22;54190;49.770;9.250;2023-04-15T11:32:57;10.50;99.90
67273;DHT22;54190;49.770;9.250;2023-04-15T11:35:23;10.30;99.90
67273;DHT22;54190;49.770;9.250;2023-04-15T11:37:49;10.10;99.90
67273;DHT22;54190;49.770;9.250;2023-04-15T11:40:16;10.00;99.90
67273;DHT22;54190;49.770;9.250;2023-04-15T11:42:45;9.90;99.90
67273;DHT22;54190;49.770;9.250;2023-04-15T11:45:13;9.90;99.90
67273;DHT22;54190;49.770;9.250;2023-04-15T11:47:41;9.80;99.90
67273;DHT22;54190;49.770;9.250;2023-04-15T11:50:21;9.70;99.90
67273;DHT22;54190;49.770;9.250;2023-04-15T11:53:03;9.60;99.90
67273;DHT22;54190;49.770;9.250;2023-04-15T11:55:30;9.50;99.90
67273;DHT22;54190;49.770;9.250;2023-04-15T12:00:34;9.20;99.90
67273;DHT22;54190;49.770;9.250;2023-04-15T12:11:27;8.90;99.90
67273;DHT22;54190;49.770;9.250;2023-04-15T12:16:34;8.60;99.90
67273;DHT22;54190;49.770;9.250;2023-04-15T12:19:04;8.50;99.90
67273;DHT22;54190;49.770;9.250;2023-04-15T12:21:36;8.50;99.90
67273;DHT22;54190;49.770;9.250;2023-04-15T12:24:04;8.60;99.90
67273;DHT22;54190;49.770;9.250;2023-04-15T12:26:35;8.70;99.90
67273;DHT22;54190;49.770;9.250;2023-04-15T12:29:03;8.90;99.90
67273;DHT22;54190;49.770;9.250;2023-04-15T12:31:29;8.90;99.90
67273;DHT22;54190;49.770;9.250;2023-04-15T12:33:56;8.90;99.90
67273;DHT22;54190;49.770;9.250;2023-04-15T12:36:22;9.00;99.90
67273;DHT22;54190;49.770;9.250;2023-04-15T12:38:48;8.90;99.90
67273;DHT22;54190;49.770;9.250;2023-04-15T12:41:14;8.80;99.90
67273;DHT22;54190;49.770;9.250;2023-04-15T12:43:39;8.70;99.90
67273;DHT22;54190;49.770;9.250;2023-04-15T12:46:06;8.60;99.90
67273;DHT22;54190;49.770;9.250;2023-04-15T12:48:33;8.60;99.90
67273;DHT22;54190;49.770;9.250;2023-04-15T12:50:59;8.50;99.90
67273;DHT22;54190;49.770;9.250;2023-04-15T12:53:25;8.50;99.90
67273;DHT22;54190;49.770;9.250;2023-04-15T12:55:50;8.50;99.90
67273;DHT22;54190;49.770;9.250;2023-04-15T12:58:16;8.40;99.90
67273;DHT22;54190;49.770;9.250;2023-04-15T13:00:42;8.40;99.90
67273;DHT22;54190;49.770;9.250;2023-04-15T13:03:07;8.50;99.90
67273;DHT22;54190;49.770;9.250;2023-04-15T13:05:33;8.50;99.90
67273;DHT22;54190;49.770;9.250;2023-04-15T13:08:01;8.60;99.90
67273;DHT22;54190;49.770;9.250;2023-04-15T13:10:28;8.50;99.90
67273;DHT22;54190;49.770;9.250;2023-04-15T13:12:54;8.40;99.90
67273;DHT22;54190;49.770;9.250;2023-04-15T13:15:21;8.40;99.90
67273;DHT22;54190;49.770;9.250;2023-04-15T13:17:47;8.30;99.90
67273;DHT22;54190;49.770;9.250;2023-04-15T13:20:13;8.30;99.90
67273;DHT22;54190;49.770;9.250;2023-04-15T13:22:40;8.20;99.90
67273;DHT22;54190;49.770;9.250;2023-04-15T13:25:06;8.20;99.90
67273;DHT22;54190;49.770;9.250;2023-04-15T13:27:32;8.20;99.90
67273;DHT22;54190;49.770;9.250;2023-04-15T13:29:58;8.30;99.90
67273;DHT22;54190;49.770;9.250;2023-04-15T13:32:24;8.30;99.90
67273;DHT22;54190;49.770;9.250;2023-04-15T13:34:50;8.30;99.90
67273;DHT22;54190;49.770;9.250;2023-04-15T13:37:16;8.20;99.90
67273;DHT22;54190;49.770;9.250;2023-04-15T13:39:42;8.20;99.90
67273;DHT22;54190;49.770;9.250;2023-04-15T13:42:08;8.30;99.90
67273;DHT22;54190;49.770;9.250;2023-04-15T13:44:34;8.20;99.90
67273;DHT22;54190;49.770;9.250;2023-04-15T13:47:00;8.20;99.90
67273;DHT22;54190;49.770;9.250;2023-04-15T13:49:25;8.10;99.90
67273;DHT22;54190;49.770;9.250;2023-04-15T13:51:51;8.20;99.90
67273;DHT22;54190;49.770;9.250;2023-04-15T13:54:17;8.20;99.90
67273;DHT22;54190;49.770;9.250;2023-04-15T13:56:42;8.20;99.90
67273;DHT22;54190;49.770;9.250;2023-04-15T13:59:08;8.20;99.90
67273;DHT22;54190;49.770;9.250;2023-04-15T14:01:34;8.20;99.90
67273;DHT22;54190;49.770;9.250;2023-04-15T14:04:00;8.10;99.90
67273;DHT22;54190;49.770;9.250;2023-04-15T14:06:26;8.10;99.90
67273;DHT22;54190;49.770;9.250;2023-04-15T14:08:52;8.10;99.90
67273;DHT22;54190;49.770;9.250;2023-04-15T14:11:18;8.20;99.90
67273;DHT22;54190;49.770;9.250;2023-04-15T14:13:43;8.20;99.90
67273;DHT22;54190;49.770;9.250;2023-04-15T14:16:09;8.20;99.90
67273;DHT22;54190;49.770;9.250;2023-04-15T14:18:34;8.20;99.90
67273;DHT22;54190;49.770;9.250;2023-04-15T14:21:01;8.30;99.90
67273;DHT22;54190;49.770;9.250;2023-04-15T14:23:28;8.30;99.90
67273;DHT22;54190;49.770;9.250;2023-04-15T14:25:53;8.20;99.90
67273;DHT22;54190;49.770;9.250;2023-04-15T14:28:19;8.20;99.90
67273;DHT22;54190;49.770;9.250;2023-04-15T14:30:45;8.20;99.90
67273;DHT22;54190;49.770;9.250;2023-04-15T14:33:10;8.30;99.90
67273;DHT22;54190;49.770;9.250;2023-04-15T14:35:36;8.30;99.90
67273;DHT22;54190;49.770;9.250;2023-04-15T14:38:02;8.30;99.90
67273;DHT22;54190;49.770;9.250;2023-04-15T14:40:28;8.30;99.90
67273;DHT22;54190;49.770;9.250;2023-04-15T14:42:54;8.30;99.90
67273;DHT22;54190;49.770;9.250;2023-04-15T14:45:19;8.20;99.90
67273;DHT22;54190;49.770;9.250;2023-04-15T14:47:46;8.10;99.90
67273;DHT22;54190;49.770;9.250;2023-04-15T14:50:11;8.10;99.90
67273;DHT22;54190;49.770;9.250;2023-04-15T14:52:37;8.10;99.90
67273;DHT22;54190;49.770;9.250;2023-04-15T14:55:10;8.10;99.90
67273;DHT22;54190;49.770;9.250;2023-04-15T14:57:37;8.10;99.90
67273;DHT22;54190;49.770;9.250;2023-04-15T15:00:03;8.00;99.90
67273;DHT22;54190;49.770;9.250;2023-04-15T15:02:29;8.10;99.90
67273;DHT22;54190;49.770;9.250;2023-04-15T15:04:56;8.10;99.90
67273;DHT22;54190;49.770;9.250;2023-04-15T15:07:22;8.10;99.90
67273;DHT22;54190;49.770;9.250;2023-04-15T15:09:48;8.10;99.90
67273;DHT22;54190;49.770;9.250;2023-04-15T15:12:13;8.10;99.90
67273;DHT22;54190;49.770;9.250;2023-04-15T15:14:39;8.10;99.90
67273;DHT22;54190;49.770;9.250;2023-04-15T15:17:04;8.10;99.90
67273;DHT22;54190;49.770;9.250;2023-04-15T15:19:30;8.10;99.90
67273;DHT22;54190;49.770;9.250;2023-04-15T15:21:56;8.10;99.90
67273;DHT22;54190;49.770;9.250;2023-04-15T15:24:21;8.10;99.90
67273;DHT22;54190;49.770;9.250;2023-04-15T15:26:47;8.10;99.90
67273;DHT22;54190;49.770;9.250;2023-04-15T15:29:13;8.00;99.90
67273;DHT22;54190;49.770;9.250;2023-04-15T15:31:39;8.00;99.90
67273;DHT22;54190;49.770;9.250;2023-04-15T15:34:04;8.00;99.90
67273;DHT22;54190;49.770;9.250;2023-04-15T15:36:30;8.00;99.90
67273;DHT22;54190;49.770;9.250;2023-04-15T15:38:59;8.00;99.90
67273;DHT22;54190;49.770;9.250;2023-04-15T15:41:24;7.90;99.90
67273;DHT22;54190;49.770;9.250;2023-04-15T15:43:52;7.90;99.90
67273;DHT22;54190;49.770;9.250;2023-04-15T15:46:17;7.90;99.90
67273;DHT22;54190;49.770;9.250;2023-04-15T15:48:43;7.90;99.90
67273;DHT22;54190;49.770;9.250;2023-04-15T15:51:09;7.90;99.90
67273;DHT22;54190;49.770;9.250;2023-04-15T15:53:35;7.90;99.90
67273;DHT22;54190;49.770;9.250;2023-04-15T15:56:01;7.90;99.90
67273;DHT22;54190;49.770;9.250;2023-04-15T15:58:29;7.90;99.90
67273;DHT22;54190;49.770;9.250;2023-04-15T16:00:55;7.90;99.90
67273;DHT22;54190;49.770;9.250;2023-04-15T16:03:21;7.90;99.90
67273;DHT22;54190;49.770;9.250;2023-04-15T16:05:47;7.90;99.90
67273;DHT22;54190;49.770;9.250;2023-04-15T16:08:14;7.90;99.90